createdAt,value
2017-09-11T00:00:02.380Z,12.20
2017-09-11T00:02:28.752Z,12.30
2017-09-11T00:04:55.111Z,12.30
2017-09-11T00:07:22.234Z,12.20
2017-09-11T00:09:48.594Z,12.20
2017-09-11T00:12:14.950Z,12.20
2017-09-11T00:14:41.370Z,12.20
2017-09-11T00:17:07.728Z,12.10
2017-09-11T00:19:34.115Z,12.10
2017-09-11T00:22:00.821Z,12.10
2017-09-11T00:25:11.058Z,12.10
2017-09-11T00:27:37.769Z,12.10
2017-09-11T00:30:04.148Z,12.10
2017-09-11T00:32:31.235Z,12.20
2017-09-11T00:34:57.634Z,12.10
2017-09-11T00:37:24.747Z,12.10
2017-09-11T00:39:51.106Z,12.10
2017-09-11T00:42:17.492Z,12.10
2017-09-11T00:44:44.167Z,12.10
2017-09-11T00:47:10.527Z,12.10
2017-09-11T00:49:36.956Z,12.10
2017-09-11T00:52:04.095Z,12.00
2017-09-11T00:54:31.219Z,11.90
2017-09-11T00:56:57.624Z,11.90
2017-09-11T00:59:23.982Z,11.90
2017-09-11T01:01:50.454Z,11.90
2017-09-11T01:04:16.809Z,11.80
2017-09-11T01:06:43.213Z,11.80
2017-09-11T01:09:09.573Z,11.80
2017-09-11T01:11:36.233Z,11.70
2017-09-11T01:14:02.616Z,11.70
2017-09-11T01:16:29.023Z,11.60
2017-09-11T01:18:56.182Z,11.50
2017-09-11T01:21:22.541Z,11.50
2017-09-11T01:23:48.969Z,11.50
2017-09-11T01:26:15.339Z,11.50
2017-09-11T01:28:41.744Z,11.50
2017-09-11T01:31:08.136Z,11.60
2017-09-11T01:33:34.499Z,11.60
2017-09-11T01:36:00.867Z,11.60
2017-09-11T01:38:28.422Z,11.50
2017-09-11T01:40:54.818Z,11.50
2017-09-11T01:43:21.164Z,11.50
2017-09-11T01:45:47.535Z,11.50
2017-09-11T01:48:13.966Z,11.50
2017-09-11T01:50:40.362Z,11.50
2017-09-11T01:53:06.726Z,11.50
2017-09-11T01:55:33.105Z,11.50
2017-09-11T01:57:59.464Z,11.50
2017-09-11T02:00:25.834Z,11.60
2017-09-11T02:02:52.217Z,11.60
2017-09-11T02:05:18.964Z,11.60
2017-09-11T02:07:46.087Z,11.60
2017-09-11T02:10:12.451Z,11.60
2017-09-11T02:12:39.561Z,11.70
2017-09-11T02:15:05.922Z,11.60
2017-09-11T02:17:33.082Z,11.60
2017-09-11T02:20:00.203Z,11.60
2017-09-11T02:22:26.651Z,11.60
2017-09-11T02:24:53.756Z,11.70
2017-09-11T02:27:20.421Z,11.70
2017-09-11T02:29:46.801Z,11.70
2017-09-11T02:32:13.172Z,11.60
2017-09-11T02:34:39.548Z,11.60
2017-09-11T02:37:05.918Z,11.60
2017-09-11T02:39:32.287Z,11.60
2017-09-11T02:41:59.371Z,11.60
2017-09-11T02:44:26.152Z,11.60
2017-09-11T02:46:52.543Z,11.70
2017-09-11T02:49:18.916Z,11.60
2017-09-11T02:51:45.306Z,11.60
2017-09-11T02:54:11.677Z,11.70
2017-09-11T02:56:38.048Z,11.70
2017-09-11T02:59:04.405Z,11.70
2017-09-11T03:01:30.794Z,11.70
2017-09-11T03:03:57.889Z,11.70
2017-09-11T03:06:24.560Z,11.60
2017-09-11T03:08:51.719Z,11.60
2017-09-11T03:11:18.847Z,11.50
2017-09-11T03:13:45.971Z,11.50
2017-09-11T03:16:12.347Z,11.50
2017-09-11T03:18:38.764Z,11.50
2017-09-11T03:21:05.870Z,11.50
2017-09-11T03:23:32.876Z,11.50
2017-09-11T03:25:59.203Z,11.50
2017-09-11T03:28:25.565Z,11.50
2017-09-11T03:30:52.702Z,11.40
2017-09-11T03:33:19.043Z,11.40
2017-09-11T03:35:45.435Z,11.40
2017-09-11T03:38:11.813Z,11.30
2017-09-11T03:40:38.139Z,11.30
2017-09-11T03:43:04.460Z,11.20
2017-09-11T03:45:30.858Z,11.10
2017-09-11T03:47:57.298Z,11.10
2017-09-11T03:50:23.988Z,11.00
2017-09-11T03:52:50.352Z,10.90
2017-09-11T03:55:16.691Z,10.90
2017-09-11T03:57:43.101Z,10.90
2017-09-11T04:00:09.478Z,10.80
2017-09-11T04:02:35.877Z,10.80
2017-09-11T04:05:02.265Z,10.80
2017-09-11T04:07:28.533Z,10.80
2017-09-11T04:09:54.933Z,10.80
2017-09-11T04:12:21.706Z,10.80
2017-09-11T04:14:48.100Z,10.80
2017-09-11T04:17:14.527Z,10.70
2017-09-11T04:19:40.928Z,10.70
2017-09-11T04:22:07.288Z,10.70
2017-09-11T04:24:33.647Z,10.70
2017-09-11T04:27:00.738Z,10.70
2017-09-11T04:29:27.120Z,10.60
2017-09-11T04:31:54.218Z,10.70
2017-09-11T04:34:20.589Z,10.60
2017-09-11T04:36:47.650Z,10.70
2017-09-11T04:39:14.350Z,10.60
2017-09-11T04:41:40.757Z,10.60
2017-09-11T04:44:07.113Z,11.00
2017-09-11T04:46:33.476Z,11.30
2017-09-11T04:48:59.890Z,11.50
2017-09-11T04:51:27.010Z,12.00
2017-09-11T04:53:54.177Z,12.10
2017-09-11T04:56:21.315Z,12.00
2017-09-11T04:58:47.648Z,12.00
2017-09-11T05:01:14.293Z,12.00
2017-09-11T05:03:40.643Z,11.90
2017-09-11T05:06:07.011Z,12.00
2017-09-11T05:08:33.377Z,12.20
2017-09-11T05:11:00.476Z,12.50
2017-09-11T05:13:26.898Z,12.40
2017-09-11T05:15:53.348Z,12.50
2017-09-11T05:18:19.724Z,12.40
2017-09-11T05:20:46.799Z,12.40
2017-09-11T05:23:13.154Z,12.40
2017-09-11T05:25:39.536Z,12.30
2017-09-11T05:28:05.909Z,12.50
2017-09-11T05:30:32.326Z,12.50
2017-09-11T05:32:58.672Z,12.60
2017-09-11T05:35:25.035Z,12.70
2017-09-11T05:37:51.389Z,12.90
2017-09-11T05:40:18.819Z,12.80
2017-09-11T05:42:45.202Z,12.80
2017-09-11T05:45:11.592Z,12.60
2017-09-11T05:47:38.752Z,12.20
2017-09-11T05:50:05.109Z,12.10
2017-09-11T05:52:31.491Z,12.00
2017-09-11T05:54:57.822Z,11.80
2017-09-11T05:57:24.193Z,11.70
2017-09-11T05:59:50.574Z,11.70
2017-09-11T06:02:16.946Z,11.70
2017-09-11T06:04:43.294Z,11.80
2017-09-11T06:07:09.743Z,11.70
2017-09-11T06:09:36.082Z,11.70
2017-09-11T06:12:02.731Z,11.70
2017-09-11T06:14:29.098Z,11.80
2017-09-11T06:16:55.459Z,11.80
2017-09-11T06:19:22.646Z,11.90
2017-09-11T06:21:49.745Z,12.10
2017-09-11T06:24:16.111Z,12.00
2017-09-11T06:26:42.457Z,12.20
2017-09-11T06:29:09.571Z,12.40
2017-09-11T06:31:35.925Z,12.40
2017-09-11T06:34:02.486Z,12.40
2017-09-11T06:36:28.830Z,12.50
2017-09-11T06:38:55.223Z,12.60
2017-09-11T06:41:22.329Z,12.90
2017-09-11T06:43:48.719Z,12.90
2017-09-11T06:46:15.111Z,12.90
2017-09-11T06:48:41.583Z,13.00
2017-09-11T06:51:07.954Z,13.00
2017-09-11T06:53:34.283Z,13.20
2017-09-11T06:56:00.944Z,13.20
2017-09-11T06:58:27.293Z,13.30
2017-09-11T07:00:54.384Z,13.40
2017-09-11T07:03:20.749Z,13.40
2017-09-11T07:05:47.123Z,13.50
2017-09-11T07:08:13.597Z,13.60
2017-09-11T07:10:39.991Z,13.60
2017-09-11T07:16:01.288Z,13.70
2017-09-11T07:18:28.407Z,13.80
2017-09-11T07:20:54.783Z,13.80
2017-09-11T07:23:21.450Z,13.90
2017-09-11T07:25:47.816Z,13.90
2017-09-11T07:28:14.192Z,14.00
2017-09-11T07:30:40.554Z,14.10
2017-09-11T07:33:06.961Z,14.20
2017-09-11T07:35:33.326Z,14.30
2017-09-11T07:37:59.698Z,14.40
2017-09-11T07:40:26.058Z,14.50
2017-09-11T07:42:52.429Z,14.60
2017-09-11T07:45:18.833Z,14.70
2017-09-11T07:47:45.227Z,14.70
2017-09-11T07:50:11.607Z,14.70
2017-09-11T07:52:37.993Z,14.80
2017-09-11T07:55:04.361Z,14.70
2017-09-11T07:57:30.770Z,14.80
2017-09-11T07:59:57.254Z,14.80
2017-09-11T08:02:24.415Z,15.00
2017-09-11T08:04:51.571Z,15.00
2017-09-11T08:07:17.946Z,15.10
2017-09-11T08:09:44.306Z,15.10
2017-09-11T08:12:10.722Z,15.20
2017-09-11T08:14:37.081Z,15.30
2017-09-11T08:17:04.151Z,15.40
2017-09-11T08:19:30.603Z,15.40
2017-09-11T08:21:57.000Z,15.40
2017-09-11T08:24:23.420Z,15.50
2017-09-11T08:26:49.817Z,15.60
2017-09-11T08:29:16.160Z,15.70
2017-09-11T08:31:42.551Z,15.80
2017-09-11T08:34:08.922Z,15.90
2017-09-11T08:36:36.038Z,16.10
2017-09-11T08:39:02.456Z,16.10
2017-09-11T08:41:28.850Z,16.10
2017-09-11T08:43:56.030Z,16.30
2017-09-11T08:46:22.408Z,16.30
2017-09-11T08:48:48.858Z,16.40
2017-09-11T08:51:15.962Z,16.50
2017-09-11T08:53:42.340Z,16.50
2017-09-11T08:56:08.983Z,16.60
2017-09-11T08:58:35.350Z,16.70
2017-09-11T09:01:01.842Z,16.90
2017-09-11T09:03:28.442Z,17.00
2017-09-11T09:05:54.987Z,17.10
2017-09-11T09:08:22.132Z,17.30
2017-09-11T09:10:48.557Z,17.30
2017-09-11T09:13:14.984Z,17.30
2017-09-11T09:15:41.424Z,17.30
2017-09-11T09:18:09.005Z,17.30
2017-09-11T09:20:36.127Z,17.50
2017-09-11T09:23:03.219Z,17.60
2017-09-11T09:25:29.590Z,17.60
2017-09-11T09:27:55.945Z,17.70
2017-09-11T09:30:22.373Z,17.90
2017-09-11T09:32:49.514Z,17.80
2017-09-11T09:35:16.008Z,17.80
2017-09-11T09:37:42.619Z,17.80
2017-09-11T09:40:09.335Z,17.70
2017-09-11T09:42:35.770Z,17.70
2017-09-11T09:45:03.246Z,17.80
2017-09-11T09:47:29.625Z,17.70
2017-09-11T09:49:56.006Z,17.70
2017-09-11T09:52:22.409Z,17.60
2017-09-11T09:54:49.483Z,17.70
2017-09-11T09:57:15.891Z,17.70
2017-09-11T09:59:42.980Z,17.90
2017-09-11T10:02:09.411Z,17.80
2017-09-11T10:04:35.761Z,18.00
2017-09-11T10:07:02.399Z,18.20
2017-09-11T10:09:28.768Z,18.50
2017-09-11T10:11:55.883Z,18.50
2017-09-11T10:14:22.265Z,18.50
2017-09-11T10:16:48.713Z,18.50
2017-09-11T10:19:15.089Z,18.50
2017-09-11T10:21:42.201Z,18.80
2017-09-11T10:24:08.957Z,18.70
2017-09-11T10:26:35.319Z,18.90
2017-09-11T10:29:01.671Z,18.80
2017-09-11T10:31:28.064Z,18.70
2017-09-11T10:33:54.425Z,18.60
2017-09-11T10:36:20.823Z,18.40
2017-09-11T10:38:47.177Z,18.30
2017-09-11T10:41:13.571Z,18.40
2017-09-11T10:43:40.729Z,18.30
2017-09-11T10:46:07.439Z,18.30
2017-09-11T10:48:33.817Z,18.40
2017-09-11T10:51:00.210Z,18.50
2017-09-11T10:53:26.552Z,18.50
2017-09-11T10:55:52.942Z,18.60
2017-09-11T10:58:19.325Z,18.70
2017-09-11T11:00:46.422Z,18.60
2017-09-11T11:03:12.811Z,18.60
2017-09-11T11:05:39.943Z,18.70
2017-09-11T11:08:07.057Z,18.80
2017-09-11T11:10:33.500Z,18.80
2017-09-11T11:12:59.897Z,18.90
2017-09-11T11:15:26.266Z,18.90
2017-09-11T11:17:52.638Z,18.90
2017-09-11T11:20:19.011Z,18.80
2017-09-11T11:22:45.350Z,18.90
2017-09-11T11:25:11.728Z,19.00
2017-09-11T11:27:38.104Z,19.20
2017-09-11T11:30:04.491Z,19.30
2017-09-11T11:32:30.873Z,19.40
2017-09-11T11:34:57.243Z,19.40
2017-09-11T11:37:23.621Z,19.50
2017-09-11T11:39:49.994Z,19.50
2017-09-11T11:42:17.098Z,19.70
2017-09-11T11:44:43.429Z,19.70
2017-09-11T11:47:09.799Z,19.90
2017-09-11T11:49:36.932Z,20.00
2017-09-11T11:52:04.371Z,20.10
2017-09-11T11:54:30.737Z,20.10
2017-09-11T11:56:57.086Z,20.20
2017-09-11T11:59:23.424Z,20.50
2017-09-11T12:01:49.788Z,21.00
2017-09-11T12:04:16.189Z,21.50
2017-09-11T12:06:42.516Z,21.50
2017-09-11T12:09:08.877Z,21.70
2017-09-11T12:11:35.229Z,21.90
2017-09-11T12:14:02.360Z,22.40
2017-09-11T12:16:28.745Z,22.40
2017-09-11T12:18:55.093Z,22.70
2017-09-11T12:21:21.471Z,22.70
2017-09-11T12:23:47.871Z,22.90
2017-09-11T12:26:14.227Z,23.00
2017-09-11T12:28:40.614Z,23.40
2017-09-11T12:31:06.993Z,23.80
2017-09-11T12:33:33.414Z,24.20
2017-09-11T12:36:00.512Z,24.30
2017-09-11T12:38:26.867Z,24.30
2017-09-11T12:40:53.232Z,24.20
2017-09-11T12:43:20.322Z,24.20
2017-09-11T12:45:46.715Z,24.10
2017-09-11T12:48:13.142Z,24.20
2017-09-11T12:50:40.302Z,24.50
2017-09-11T12:53:06.687Z,24.50
2017-09-11T12:55:33.092Z,24.50
2017-09-11T12:57:59.754Z,24.50
2017-09-11T13:00:26.124Z,24.50
2017-09-11T13:02:52.503Z,24.20
2017-09-11T13:05:18.901Z,23.80
2017-09-11T13:07:45.299Z,23.70
2017-09-11T13:10:12.432Z,24.10
2017-09-11T13:12:38.786Z,24.10
2017-09-11T13:15:05.180Z,24.40
2017-09-11T13:17:31.579Z,24.10
2017-09-11T13:19:58.260Z,23.70
2017-09-11T13:22:24.660Z,23.50
2017-09-11T13:24:51.022Z,23.20
2017-09-11T13:27:18.119Z,22.50
2017-09-11T13:29:44.464Z,22.50
2017-09-11T13:32:10.879Z,22.20
2017-09-11T13:34:37.225Z,21.90
2017-09-11T13:37:03.977Z,21.70
2017-09-11T13:39:30.349Z,21.30
2017-09-11T13:41:56.771Z,21.00
2017-09-11T13:44:23.175Z,20.60
2017-09-11T13:46:50.291Z,20.20
2017-09-11T13:49:16.670Z,20.20
2017-09-11T13:51:43.760Z,20.00
2017-09-11T13:54:10.170Z,20.00
2017-09-11T13:56:36.569Z,19.90
2017-09-11T13:59:03.305Z,19.80
2017-09-11T14:01:29.705Z,19.70
2017-09-11T14:03:56.030Z,19.60
2017-09-11T14:06:22.382Z,19.50
2017-09-11T14:08:48.767Z,19.40
2017-09-11T14:11:15.115Z,19.30
2017-09-11T14:13:41.549Z,19.20
2017-09-11T14:16:07.910Z,19.20
2017-09-11T14:18:35.006Z,19.00
2017-09-11T14:21:01.691Z,19.00
2017-09-11T14:23:28.070Z,18.90
2017-09-11T14:25:54.413Z,18.80
2017-09-11T14:28:21.493Z,18.60
2017-09-11T14:30:47.870Z,18.60
2017-09-11T14:33:14.237Z,18.50
2017-09-11T14:35:40.585Z,18.40
2017-09-11T14:38:06.951Z,18.40
2017-09-11T14:40:33.327Z,18.30
2017-09-11T14:42:59.686Z,18.30
2017-09-11T14:45:26.898Z,18.30
2017-09-11T14:47:53.583Z,18.20
2017-09-11T14:50:20.720Z,18.20
2017-09-11T14:52:47.834Z,18.10
2017-09-11T14:55:14.263Z,18.10
2017-09-11T14:57:40.617Z,18.10
2017-09-11T15:00:07.066Z,18.10
2017-09-11T15:02:34.225Z,18.10
2017-09-11T15:05:00.636Z,18.10
2017-09-11T15:07:28.920Z,18.00
2017-09-11T15:09:56.366Z,18.00
2017-09-11T15:12:22.747Z,18.00
2017-09-11T15:14:49.135Z,17.90
2017-09-11T15:17:16.274Z,17.70
2017-09-11T15:19:42.648Z,17.60
2017-09-11T15:22:09.048Z,17.60
2017-09-11T15:24:36.173Z,17.40
2017-09-11T15:27:02.872Z,17.40
2017-09-11T15:29:29.251Z,17.40
2017-09-11T15:31:56.363Z,17.20
2017-09-11T15:34:22.748Z,17.20
2017-09-11T15:36:49.154Z,17.20
2017-09-11T15:39:15.645Z,17.10
2017-09-11T15:41:42.001Z,17.10
2017-09-11T15:44:08.401Z,17.00
2017-09-11T15:46:34.775Z,16.90
2017-09-11T15:49:01.603Z,16.80
2017-09-11T15:51:27.995Z,16.80
2017-09-11T15:53:54.329Z,16.70
2017-09-11T15:56:20.721Z,16.60
2017-09-11T15:58:47.845Z,16.40
2017-09-11T16:01:14.202Z,16.40
2017-09-11T16:03:40.576Z,16.40
2017-09-11T16:06:06.987Z,16.30
2017-09-11T16:08:33.337Z,16.10
2017-09-11T16:10:59.687Z,16.00
2017-09-11T16:13:26.067Z,15.90
2017-09-11T16:15:52.465Z,15.80
2017-09-11T16:18:19.704Z,15.60
2017-09-11T16:20:46.091Z,15.60
2017-09-11T16:23:12.779Z,15.50
2017-09-11T16:25:39.122Z,15.50
2017-09-11T16:28:05.586Z,15.40
2017-09-11T16:30:32.068Z,15.40
2017-09-11T16:32:58.497Z,15.40
2017-09-11T16:35:25.623Z,15.20
2017-09-11T16:37:51.984Z,15.20
2017-09-11T16:40:18.678Z,15.20
2017-09-11T16:42:45.016Z,15.20
2017-09-11T16:45:11.430Z,15.10
2017-09-11T16:47:37.876Z,15.10
2017-09-11T16:50:04.237Z,15.10
2017-09-11T16:52:30.650Z,15.10
2017-09-11T16:54:57.049Z,15.10
2017-09-11T16:57:23.429Z,15.00
2017-09-11T16:59:49.850Z,15.00
2017-09-11T17:02:16.298Z,14.90
2017-09-11T17:04:42.744Z,14.90
2017-09-11T17:07:09.043Z,14.90
2017-09-11T17:09:35.432Z,14.90
2017-09-11T17:12:01.827Z,14.90
2017-09-11T17:14:28.186Z,14.80
2017-09-11T17:16:54.551Z,14.90
2017-09-11T17:19:20.919Z,14.90
2017-09-11T17:21:48.000Z,14.80
2017-09-11T17:24:14.386Z,14.80
2017-09-11T17:26:41.530Z,14.70
2017-09-11T17:29:08.625Z,14.70
2017-09-11T17:31:34.993Z,14.70
2017-09-11T17:34:02.150Z,14.60
2017-09-11T17:36:28.516Z,14.60
2017-09-11T17:38:54.845Z,14.60
2017-09-11T17:41:21.302Z,14.50
2017-09-11T17:43:47.691Z,14.50
2017-09-11T17:46:14.199Z,14.50
2017-09-11T17:48:40.693Z,14.50
2017-09-11T17:51:07.114Z,14.50
2017-09-11T17:53:33.533Z,14.50
2017-09-11T17:55:59.983Z,14.40
2017-09-11T17:58:26.402Z,14.40
2017-09-11T18:00:52.814Z,14.40
2017-09-11T18:03:19.235Z,14.30
2017-09-11T18:05:45.558Z,14.30
2017-09-11T18:08:12.677Z,14.30
2017-09-11T18:10:39.110Z,14.30
2017-09-11T18:13:05.556Z,14.30
2017-09-11T18:15:32.000Z,14.30
2017-09-11T18:17:59.203Z,14.30
2017-09-11T18:20:25.566Z,14.20
2017-09-11T18:22:52.309Z,14.20
2017-09-11T18:25:19.480Z,14.20
2017-09-11T18:27:45.953Z,14.20
2017-09-11T18:32:49.928Z,14.10
2017-09-11T18:35:16.385Z,14.10
2017-09-11T18:37:42.813Z,14.00
2017-09-11T18:40:09.242Z,14.00
2017-09-11T18:42:35.697Z,14.00
2017-09-11T18:45:02.514Z,14.00
2017-09-11T18:47:28.951Z,14.00
2017-09-11T18:49:55.420Z,14.00
2017-09-11T18:52:21.992Z,13.90
2017-09-11T18:54:48.452Z,13.90
2017-09-11T18:57:14.928Z,13.80
2017-09-11T18:59:41.381Z,13.80
2017-09-11T19:02:08.240Z,13.80
2017-09-11T19:04:34.682Z,13.80
2017-09-11T19:07:01.171Z,13.70
2017-09-11T19:09:28.369Z,13.70
2017-09-11T19:11:54.796Z,13.70
2017-09-11T19:14:21.312Z,13.60
2017-09-11T19:16:47.775Z,13.60
2017-09-11T19:19:14.202Z,13.60
2017-09-11T19:21:40.637Z,13.50
2017-09-11T19:24:07.116Z,13.50
2017-09-11T19:26:33.622Z,13.40
2017-09-11T19:29:00.074Z,13.40
2017-09-11T19:31:26.560Z,13.30
2017-09-11T19:33:53.039Z,13.30
2017-09-11T19:36:19.572Z,13.30
2017-09-11T19:38:46.764Z,13.30
2017-09-11T19:41:13.287Z,13.30
2017-09-11T19:43:39.726Z,13.30
2017-09-11T19:46:06.201Z,13.30
2017-09-11T19:48:32.863Z,13.30
2017-09-11T19:51:00.032Z,13.30
2017-09-11T19:53:26.432Z,13.30
2017-09-11T19:55:53.627Z,13.30
2017-09-11T19:58:20.059Z,13.30
2017-09-11T20:00:46.503Z,13.30
2017-09-11T20:03:12.950Z,13.30
2017-09-11T20:05:39.396Z,13.20
2017-09-11T20:08:06.183Z,13.20
2017-09-11T20:10:32.590Z,13.20
2017-09-11T20:12:59.795Z,13.20
2017-09-11T20:15:26.228Z,13.20
2017-09-11T20:17:52.662Z,13.20
2017-09-11T20:20:19.121Z,13.10
2017-09-11T20:22:46.244Z,13.10
2017-09-11T20:25:12.624Z,13.10
2017-09-11T20:27:39.044Z,13.10
2017-09-11T20:30:05.756Z,13.10
2017-09-11T20:32:32.148Z,13.10
2017-09-11T20:34:58.511Z,13.10
2017-09-11T20:37:24.909Z,13.10
2017-09-11T20:39:51.277Z,13.10
2017-09-11T20:42:17.662Z,13.10
2017-09-11T20:44:44.025Z,13.10
2017-09-11T20:47:10.387Z,13.10
2017-09-11T20:49:37.626Z,13.20
2017-09-11T20:52:04.071Z,13.10
2017-09-11T20:54:30.450Z,13.10
2017-09-11T20:56:56.818Z,13.10
2017-09-11T20:59:23.985Z,13.10
2017-09-11T21:01:51.110Z,13.10
2017-09-11T21:04:17.466Z,13.00
2017-09-11T21:06:43.868Z,13.10
2017-09-11T21:09:10.609Z,13.00
2017-09-11T21:11:36.949Z,13.00
2017-09-11T21:14:03.296Z,13.00
2017-09-11T21:16:29.681Z,13.00
2017-09-11T21:18:56.053Z,13.00
2017-09-11T21:21:23.159Z,13.00
2017-09-11T21:23:49.533Z,13.00
2017-09-11T21:26:15.921Z,13.00
2017-09-11T21:28:42.278Z,13.10
2017-09-11T21:31:08.950Z,13.10
2017-09-11T21:33:35.336Z,13.10
2017-09-11T21:36:02.453Z,13.10
2017-09-11T21:38:28.797Z,13.10
2017-09-11T21:40:55.116Z,13.10
2017-09-11T21:43:21.491Z,13.10
2017-09-11T21:45:48.628Z,13.10
2017-09-11T21:48:15.786Z,13.10
2017-09-11T21:50:42.878Z,13.10
2017-09-11T21:53:09.245Z,13.10
2017-09-11T21:55:35.645Z,13.10
2017-09-11T21:58:02.057Z,13.10
2017-09-11T22:00:28.422Z,13.10
2017-09-11T22:02:54.750Z,13.10
2017-09-11T22:05:21.105Z,13.10
2017-09-11T22:07:48.234Z,13.00
2017-09-11T22:10:15.351Z,13.00
2017-09-11T22:12:41.732Z,13.00
2017-09-11T22:15:08.895Z,13.00
2017-09-11T22:17:35.274Z,13.00
2017-09-11T22:20:01.706Z,13.00
2017-09-11T22:22:28.071Z,13.00
2017-09-11T22:24:54.447Z,13.00
2017-09-11T22:27:20.811Z,13.00
2017-09-11T22:29:47.166Z,13.00
2017-09-11T22:32:13.599Z,13.00
2017-09-11T22:34:39.928Z,13.00
2017-09-11T22:37:06.307Z,13.00
2017-09-11T22:39:32.700Z,13.00
2017-09-11T22:41:59.105Z,13.00
2017-09-11T22:44:26.214Z,13.00
2017-09-11T22:46:52.600Z,13.00
2017-09-11T22:49:18.991Z,12.90
2017-09-11T22:51:45.371Z,12.90
2017-09-11T22:54:12.491Z,12.90
2017-09-11T22:56:39.574Z,12.90
2017-09-11T22:59:05.979Z,12.90
2017-09-11T23:01:32.360Z,12.90
2017-09-11T23:03:58.705Z,12.90
2017-09-11T23:06:25.065Z,12.90
2017-09-11T23:08:51.418Z,12.90
2017-09-11T23:11:17.776Z,12.90
2017-09-11T23:13:44.141Z,12.80
2017-09-11T23:16:11.240Z,12.90
2017-09-11T23:18:37.607Z,12.80
2017-09-11T23:21:04.732Z,12.90
2017-09-11T23:23:31.486Z,12.90
2017-09-11T23:25:58.592Z,12.90
2017-09-11T23:28:24.971Z,12.90
2017-09-11T23:30:51.361Z,12.90
2017-09-11T23:33:17.735Z,12.90
2017-09-11T23:35:44.466Z,12.90
2017-09-11T23:38:10.838Z,12.80
2017-09-11T23:40:37.231Z,12.80
2017-09-11T23:43:03.599Z,12.80
2017-09-11T23:45:29.967Z,12.90
2017-09-11T23:47:56.388Z,12.80
2017-09-11T23:50:22.707Z,12.80
2017-09-11T23:52:49.070Z,12.90
2017-09-11T23:55:15.472Z,12.80
2017-09-11T23:57:41.827Z,12.80
